sensor_id;sensor_type;location;lat;lon;timestamp;temperature;humidity
21261;DHT22;10788;47.930;9.766;2023-02-01T00:00:59;2.20;99.90
21261;DHT22;10788;47.930;9.766;2023-02-01T00:03:24;2.20;99.90
21261;DHT22;10788;47.930;9.766;2023-02-01T00:05:57;2.20;99.90
21261;DHT22;10788;47.930;9.766;2023-02-01T00:08:23;2.20;99.90
21261;DHT22;10788;47.930;9.766;2023-02-01T00:10:49;2.20;99.90
21261;DHT22;10788;47.930;9.766;2023-02-01T00:13:22;2.30;99.90
21261;DHT22;10788;47.930;9.766;2023-02-01T00:15:48;2.30;99.90
21261;DHT22;10788;47.930;9.766;2023-02-01T00:18:13;2.20;99.90
21261;DHT22;10788;47.930;9.766;2023-02-01T00:20:39;2.30;99.90
21261;DHT22;10788;47.930;9.766;2023-02-01T00:23:10;2.30;99.90
21261;DHT22;10788;47.930;9.766;2023-02-01T00:25:35;2.30;99.90
21261;DHT22;10788;47.930;9.766;2023-02-01T00:28:01;2.20;99.90
21261;DHT22;10788;47.930;9.766;2023-02-01T00:30:26;2.20;99.90
21261;DHT22;10788;47.930;9.766;2023-02-01T00:32:52;2.20;99.90
21261;DHT22;10788;47.930;9.766;2023-02-01T00:35:18;2.20;99.90
21261;DHT22;10788;47.930;9.766;2023-02-01T00:37:43;2.20;99.90
21261;DHT22;10788;47.930;9.766;2023-02-01T00:40:11;2.20;99.90
21261;DHT22;10788;47.930;9.766;2023-02-01T00:42:36;2.20;99.90
21261;DHT22;10788;47.930;9.766;2023-02-01T00:45:02;2.20;99.90
21261;DHT22;10788;47.930;9.766;2023-02-01T00:47:27;2.20;99.90
21261;DHT22;10788;47.930;9.766;2023-02-01T00:49:53;2.10;99.90
21261;DHT22;10788;47.930;9.766;2023-02-01T00:52:19;2.00;99.90
21261;DHT22;10788;47.930;9.766;2023-02-01T00:54:44;2.00;99.90
21261;DHT22;10788;47.930;9.766;2023-02-01T00:57:10;2.00;99.90
21261;DHT22;10788;47.930;9.766;2023-02-01T00:59:35;2.00;99.90
21261;DHT22;10788;47.930;9.766;2023-02-01T01:02:01;2.10;99.90
21261;DHT22;10788;47.930;9.766;2023-02-01T01:04:27;2.00;99.90
21261;DHT22;10788;47.930;9.766;2023-02-01T01:06:52;2.00;99.90
21261;DHT22;10788;47.930;9.766;2023-02-01T01:09:18;2.20;99.90
21261;DHT22;10788;47.930;9.766;2023-02-01T01:11:43;2.00;99.90
21261;DHT22;10788;47.930;9.766;2023-02-01T01:14:10;1.90;99.90
21261;DHT22;10788;47.930;9.766;2023-02-01T01:16:36;1.90;99.90
21261;DHT22;10788;47.930;9.766;2023-02-01T01:19:02;1.90;99.90
21261;DHT22;10788;47.930;9.766;2023-02-01T01:21:28;1.90;99.90
21261;DHT22;10788;47.930;9.766;2023-02-01T01:23:54;1.90;99.90
21261;DHT22;10788;47.930;9.766;2023-02-01T01:26:23;1.90;99.90
21261;DHT22;10788;47.930;9.766;2023-02-01T01:28:49;1.90;99.90
21261;DHT22;10788;47.930;9.766;2023-02-01T01:31:17;1.90;99.90
21261;DHT22;10788;47.930;9.766;2023-02-01T01:33:42;1.90;99.90
21261;DHT22;10788;47.930;9.766;2023-02-01T01:36:12;1.90;99.90
21261;DHT22;10788;47.930;9.766;2023-02-01T01:38:41;1.90;99.90
21261;DHT22;10788;47.930;9.766;2023-02-01T01:41:08;1.90;99.90
21261;DHT22;10788;47.930;9.766;2023-02-01T01:43:56;2.00;99.90
21261;DHT22;10788;47.930;9.766;2023-02-01T01:46:28;1.90;99.90
21261;DHT22;10788;47.930;9.766;2023-02-01T01:49:03;1.90;99.90
21261;DHT22;10788;47.930;9.766;2023-02-01T01:51:31;1.90;99.90
21261;DHT22;10788;47.930;9.766;2023-02-01T01:54:12;2.00;99.90
21261;DHT22;10788;47.930;9.766;2023-02-01T01:56:40;2.00;99.90
21261;DHT22;10788;47.930;9.766;2023-02-01T01:59:07;2.00;99.90
21261;DHT22;10788;47.930;9.766;2023-02-01T02:01:33;2.00;99.90
21261;DHT22;10788;47.930;9.766;2023-02-01T02:03:59;2.00;99.90
21261;DHT22;10788;47.930;9.766;2023-02-01T02:06:51;2.00;99.90
21261;DHT22;10788;47.930;9.766;2023-02-01T02:09:20;2.00;99.90
21261;DHT22;10788;47.930;9.766;2023-02-01T02:11:46;2.00;99.90
21261;DHT22;10788;47.930;9.766;2023-02-01T02:14:14;1.90;99.90
21261;DHT22;10788;47.930;9.766;2023-02-01T02:17:30;1.90;99.90
21261;DHT22;10788;47.930;9.766;2023-02-01T02:26:26;1.90;99.90
21261;DHT22;10788;47.930;9.766;2023-02-01T02:40:05;2.00;99.90
21261;DHT22;10788;47.930;9.766;2023-02-01T02:42:41;2.00;99.90
21261;DHT22;10788;47.930;9.766;2023-02-01T02:45:41;2.00;99.90
21261;DHT22;10788;47.930;9.766;2023-02-01T02:48:46;2.00;99.90
21261;DHT22;10788;47.930;9.766;2023-02-01T02:51:14;2.00;99.90
21261;DHT22;10788;47.930;9.766;2023-02-01T02:54:30;2.00;99.90
21261;DHT22;10788;47.930;9.766;2023-02-01T02:57:36;1.90;99.90
21261;DHT22;10788;47.930;9.766;2023-02-01T03:00:22;1.90;99.90
21261;DHT22;10788;47.930;9.766;2023-02-01T03:03:08;1.90;99.90
21261;DHT22;10788;47.930;9.766;2023-02-01T03:05:53;1.90;99.90
21261;DHT22;10788;47.930;9.766;2023-02-01T03:08:29;1.90;99.90
21261;DHT22;10788;47.930;9.766;2023-02-01T03:11:05;1.90;99.90
21261;DHT22;10788;47.930;9.766;2023-02-01T03:16:20;1.90;99.90
21261;DHT22;10788;47.930;9.766;2023-02-01T03:21:29;1.90;99.90
21261;DHT22;10788;47.930;9.766;2023-02-01T03:24:02;1.90;99.90
21261;DHT22;10788;47.930;9.766;2023-02-01T03:26:31;1.90;99.90
21261;DHT22;10788;47.930;9.766;2023-02-01T03:29:11;2.00;99.90
21261;DHT22;10788;47.930;9.766;2023-02-01T03:31:38;1.90;99.90
21261;DHT22;10788;47.930;9.766;2023-02-01T03:34:04;1.90;99.90
21261;DHT22;10788;47.930;9.766;2023-02-01T03:36:44;1.90;99.90
21261;DHT22;10788;47.930;9.766;2023-02-01T03:40:00;2.00;99.90
21261;DHT22;10788;47.930;9.766;2023-02-01T03:44:54;1.90;99.90
21261;DHT22;10788;47.930;9.766;2023-02-01T03:47:28;1.90;99.90
21261;DHT22;10788;47.930;9.766;2023-02-01T03:49:59;1.90;99.90
21261;DHT22;10788;47.930;9.766;2023-02-01T03:52:31;1.90;99.90
21261;DHT22;10788;47.930;9.766;2023-02-01T03:54:59;1.80;99.90
21261;DHT22;10788;47.930;9.766;2023-02-01T03:57:31;1.90;99.90
21261;DHT22;10788;47.930;9.766;2023-02-01T04:00:07;1.90;99.90
21261;DHT22;10788;47.930;9.766;2023-02-01T04:02:34;2.00;99.90
21261;DHT22;10788;47.930;9.766;2023-02-01T04:04:59;1.90;99.90
21261;DHT22;10788;47.930;9.766;2023-02-01T04:07:25;1.90;99.90
21261;DHT22;10788;47.930;9.766;2023-02-01T04:09:51;1.90;99.90
21261;DHT22;10788;47.930;9.766;2023-02-01T04:12:16;1.90;99.90
21261;DHT22;10788;47.930;9.766;2023-02-01T04:14:42;1.90;99.90
21261;DHT22;10788;47.930;9.766;2023-02-01T04:17:07;1.90;99.90
21261;DHT22;10788;47.930;9.766;2023-02-01T04:19:33;1.80;99.90
21261;DHT22;10788;47.930;9.766;2023-02-01T04:21:59;1.90;99.90
21261;DHT22;10788;47.930;9.766;2023-02-01T04:24:24;1.90;99.90
21261;DHT22;10788;47.930;9.766;2023-02-01T04:26:50;2.00;99.90
21261;DHT22;10788;47.930;9.766;2023-02-01T04:29:16;2.00;99.90
21261;DHT22;10788;47.930;9.766;2023-02-01T04:31:41;2.00;99.90
21261;DHT22;10788;47.930;9.766;2023-02-01T04:34:07;1.90;99.90
21261;DHT22;10788;47.930;9.766;2023-02-01T04:36:32;1.90;99.90
21261;DHT22;10788;47.930;9.766;2023-02-01T04:38:58;2.00;99.90
21261;DHT22;10788;47.930;9.766;2023-02-01T04:41:24;1.90;99.90
21261;DHT22;10788;47.930;9.766;2023-02-01T04:43:50;1.90;99.90
21261;DHT22;10788;47.930;9.766;2023-02-01T04:46:17;1.90;99.90
21261;DHT22;10788;47.930;9.766;2023-02-01T04:48:43;1.90;99.90
21261;DHT22;10788;47.930;9.766;2023-02-01T04:51:09;1.90;99.90
21261;DHT22;10788;47.930;9.766;2023-02-01T04:53:35;1.90;99.90
21261;DHT22;10788;47.930;9.766;2023-02-01T04:56:01;2.00;99.90
21261;DHT22;10788;47.930;9.766;2023-02-01T04:58:27;1.90;99.90
21261;DHT22;10788;47.930;9.766;2023-02-01T05:00:52;1.90;99.90
21261;DHT22;10788;47.930;9.766;2023-02-01T05:03:18;1.90;99.90
21261;DHT22;10788;47.930;9.766;2023-02-01T05:05:44;1.90;99.90
21261;DHT22;10788;47.930;9.766;2023-02-01T05:08:09;1.90;99.90
21261;DHT22;10788;47.930;9.766;2023-02-01T05:10:35;2.00;99.90
21261;DHT22;10788;47.930;9.766;2023-02-01T05:13:01;2.00;99.90
21261;DHT22;10788;47.930;9.766;2023-02-01T05:15:45;1.90;99.90
21261;DHT22;10788;47.930;9.766;2023-02-01T05:18:12;1.80;99.90
21261;DHT22;10788;47.930;9.766;2023-02-01T05:20:37;1.80;99.90
21261;DHT22;10788;47.930;9.766;2023-02-01T05:23:03;1.80;99.90
21261;DHT22;10788;47.930;9.766;2023-02-01T05:25:28;1.80;99.90
21261;DHT22;10788;47.930;9.766;2023-02-01T05:27:54;1.90;99.90
21261;DHT22;10788;47.930;9.766;2023-02-01T05:30:20;1.90;99.90
21261;DHT22;10788;47.930;9.766;2023-02-01T05:32:49;1.80;99.90
21261;DHT22;10788;47.930;9.766;2023-02-01T05:35:15;1.80;99.90
21261;DHT22;10788;47.930;9.766;2023-02-01T05:37:40;1.80;99.90
21261;DHT22;10788;47.930;9.766;2023-02-01T05:40:06;1.80;99.90
21261;DHT22;10788;47.930;9.766;2023-02-01T05:42:32;1.80;99.90
21261;DHT22;10788;47.930;9.766;2023-02-01T05:44:58;1.80;99.90
21261;DHT22;10788;47.930;9.766;2023-02-01T05:47:23;1.80;99.90
21261;DHT22;10788;47.930;9.766;2023-02-01T05:49:49;1.80;99.90
21261;DHT22;10788;47.930;9.766;2023-02-01T05:52:15;1.90;99.90
21261;DHT22;10788;47.930;9.766;2023-02-01T05:54:45;1.90;99.90
21261;DHT22;10788;47.930;9.766;2023-02-01T05:57:11;1.90;99.90
21261;DHT22;10788;47.930;9.766;2023-02-01T05:59:38;1.90;99.90
21261;DHT22;10788;47.930;9.766;2023-02-01T06:02:07;1.80;99.90
21261;DHT22;10788;47.930;9.766;2023-02-01T06:04:32;1.80;99.90
21261;DHT22;10788;47.930;9.766;2023-02-01T06:06:58;1.80;99.90
21261;DHT22;10788;47.930;9.766;2023-02-01T06:09:24;1.80;99.90
21261;DHT22;10788;47.930;9.766;2023-02-01T06:11:49;1.80;99.90
21261;DHT22;10788;47.930;9.766;2023-02-01T06:14:15;1.80;99.90
21261;DHT22;10788;47.930;9.766;2023-02-01T06:16:40;1.80;99.90
21261;DHT22;10788;47.930;9.766;2023-02-01T06:19:06;1.80;99.90
21261;DHT22;10788;47.930;9.766;2023-02-01T06:21:32;1.80;99.90
21261;DHT22;10788;47.930;9.766;2023-02-01T06:23:58;1.80;99.90
21261;DHT22;10788;47.930;9.766;2023-02-01T06:26:24;1.80;99.90
21261;DHT22;10788;47.930;9.766;2023-02-01T06:28:50;1.80;99.90
21261;DHT22;10788;47.930;9.766;2023-02-01T06:31:15;1.80;99.90
21261;DHT22;10788;47.930;9.766;2023-02-01T06:33:41;1.80;99.90
21261;DHT22;10788;47.930;9.766;2023-02-01T06:36:09;1.80;99.90
21261;DHT22;10788;47.930;9.766;2023-02-01T06:38:36;1.80;99.90
21261;DHT22;10788;47.930;9.766;2023-02-01T06:41:02;1.80;99.90
21261;DHT22;10788;47.930;9.766;2023-02-01T06:43:29;1.80;99.90
21261;DHT22;10788;47.930;9.766;2023-02-01T06:46:03;1.80;99.90
21261;DHT22;10788;47.930;9.766;2023-02-01T06:48:30;1.80;99.90
21261;DHT22;10788;47.930;9.766;2023-02-01T06:50:55;1.70;99.90
21261;DHT22;10788;47.930;9.766;2023-02-01T06:53:21;1.80;99.90
21261;DHT22;10788;47.930;9.766;2023-02-01T06:55:58;1.80;99.90
21261;DHT22;10788;47.930;9.766;2023-02-01T06:58:31;1.80;99.90
21261;DHT22;10788;47.930;9.766;2023-02-01T07:00:57;1.80;99.90
21261;DHT22;10788;47.930;9.766;2023-02-01T07:03:23;1.80;99.90
21261;DHT22;10788;47.930;9.766;2023-02-01T07:05:49;1.80;99.90
21261;DHT22;10788;47.930;9.766;2023-02-01T07:08:15;1.80;99.90
21261;DHT22;10788;47.930;9.766;2023-02-01T07:10:40;1.80;99.90
21261;DHT22;10788;47.930;9.766;2023-02-01T07:13:06;1.80;99.90
21261;DHT22;10788;47.930;9.766;2023-02-01T07:15:32;1.80;99.90
21261;DHT22;10788;47.930;9.766;2023-02-01T07:17:58;1.80;99.90
21261;DHT22;10788;47.930;9.766;2023-02-01T07:20:23;1.90;99.90
21261;DHT22;10788;47.930;9.766;2023-02-01T07:22:54;1.90;99.90
21261;DHT22;10788;47.930;9.766;2023-02-01T07:25:20;1.80;99.90
21261;DHT22;10788;47.930;9.766;2023-02-01T07:27:45;1.80;99.90
21261;DHT22;10788;47.930;9.766;2023-02-01T07:30:12;1.80;99.90
21261;DHT22;10788;47.930;9.766;2023-02-01T07:32:37;1.80;99.90
21261;DHT22;10788;47.930;9.766;2023-02-01T07:35:03;1.80;99.90
21261;DHT22;10788;47.930;9.766;2023-02-01T07:37:29;1.80;99.90
21261;DHT22;10788;47.930;9.766;2023-02-01T07:39:56;1.80;99.90
21261;DHT22;10788;47.930;9.766;2023-02-01T07:42:21;1.90;99.90
21261;DHT22;10788;47.930;9.766;2023-02-01T07:44:47;1.90;99.90
21261;DHT22;10788;47.930;9.766;2023-02-01T07:47:12;1.90;99.90
21261;DHT22;10788;47.930;9.766;2023-02-01T07:49:38;1.90;99.90
21261;DHT22;10788;47.930;9.766;2023-02-01T07:52:04;1.90;99.90
21261;DHT22;10788;47.930;9.766;2023-02-01T07:54:29;1.90;99.90
21261;DHT22;10788;47.930;9.766;2023-02-01T07:56:55;1.90;99.90
21261;DHT22;10788;47.930;9.766;2023-02-01T07:59:21;1.90;99.90
21261;DHT22;10788;47.930;9.766;2023-02-01T08:01:46;1.90;99.90
21261;DHT22;10788;47.930;9.766;2023-02-01T08:04:12;1.90;99.90
21261;DHT22;10788;47.930;9.766;2023-02-01T08:06:41;1.90;99.90
21261;DHT22;10788;47.930;9.766;2023-02-01T08:09:07;1.90;99.90
21261;DHT22;10788;47.930;9.766;2023-02-01T08:11:33;1.80;99.90
21261;DHT22;10788;47.930;9.766;2023-02-01T08:13:59;1.80;99.90
21261;DHT22;10788;47.930;9.766;2023-02-01T08:16:25;1.90;99.90
21261;DHT22;10788;47.930;9.766;2023-02-01T08:18:52;1.90;99.90
21261;DHT22;10788;47.930;9.766;2023-02-01T08:21:26;1.90;99.90
21261;DHT22;10788;47.930;9.766;2023-02-01T08:23:53;1.90;99.90
21261;DHT22;10788;47.930;9.766;2023-02-01T08:26:22;1.90;99.90
21261;DHT22;10788;47.930;9.766;2023-02-01T08:28:58;1.90;99.90
21261;DHT22;10788;47.930;9.766;2023-02-01T08:31:26;1.90;99.90
21261;DHT22;10788;47.930;9.766;2023-02-01T08:33:54;2.00;99.90
21261;DHT22;10788;47.930;9.766;2023-02-01T08:36:21;2.00;99.90
21261;DHT22;10788;47.930;9.766;2023-02-01T08:38:47;2.10;99.90
21261;DHT22;10788;47.930;9.766;2023-02-01T08:41:16;2.10;99.90
21261;DHT22;10788;47.930;9.766;2023-02-01T08:43:43;2.10;99.90
21261;DHT22;10788;47.930;9.766;2023-02-01T08:46:09;2.10;99.90
21261;DHT22;10788;47.930;9.766;2023-02-01T08:48:35;2.10;99.90
21261;DHT22;10788;47.930;9.766;2023-02-01T08:51:09;2.10;99.90
21261;DHT22;10788;47.930;9.766;2023-02-01T08:53:36;2.00;99.90
21261;DHT22;10788;47.930;9.766;2023-02-01T08:56:02;2.00;99.90
21261;DHT22;10788;47.930;9.766;2023-02-01T08:58:28;2.00;99.90
21261;DHT22;10788;47.930;9.766;2023-02-01T09:00:53;2.00;99.90
21261;DHT22;10788;47.930;9.766;2023-02-01T09:03:19;2.10;99.90
21261;DHT22;10788;47.930;9.766;2023-02-01T09:05:45;2.10;99.90
21261;DHT22;10788;47.930;9.766;2023-02-01T09:08:11;2.10;99.90
21261;DHT22;10788;47.930;9.766;2023-02-01T09:10:40;2.10;99.90
21261;DHT22;10788;47.930;9.766;2023-02-01T09:13:07;2.00;99.90
21261;DHT22;10788;47.930;9.766;2023-02-01T09:15:33;2.10;99.90
21261;DHT22;10788;47.930;9.766;2023-02-01T09:17:59;2.00;99.90
21261;DHT22;10788;47.930;9.766;2023-02-01T09:20:24;2.10;99.90
21261;DHT22;10788;47.930;9.766;2023-02-01T09:22:55;2.10;99.90
21261;DHT22;10788;47.930;9.766;2023-02-01T09:25:20;2.00;99.90
21261;DHT22;10788;47.930;9.766;2023-02-01T09:27:46;2.00;99.90
21261;DHT22;10788;47.930;9.766;2023-02-01T09:30:12;2.00;99.90
21261;DHT22;10788;47.930;9.766;2023-02-01T09:32:38;2.00;99.90
21261;DHT22;10788;47.930;9.766;2023-02-01T09:35:03;2.10;99.90
21261;DHT22;10788;47.930;9.766;2023-02-01T09:37:29;2.00;99.90
21261;DHT22;10788;47.930;9.766;2023-02-01T09:39:55;2.10;99.90
21261;DHT22;10788;47.930;9.766;2023-02-01T09:45:16;2.20;99.90
21261;DHT22;10788;47.930;9.766;2023-02-01T09:47:51;2.20;99.90
21261;DHT22;10788;47.930;9.766;2023-02-01T09:50:21;2.20;99.90
21261;DHT22;10788;47.930;9.766;2023-02-01T09:53:01;2.20;99.90
21261;DHT22;10788;47.930;9.766;2023-02-01T09:55:40;2.20;99.90
21261;DHT22;10788;47.930;9.766;2023-02-01T09:58:14;2.20;99.90
21261;DHT22;10788;47.930;9.766;2023-02-01T10:00:50;2.20;99.90
21261;DHT22;10788;47.930;9.766;2023-02-01T10:03:17;2.30;99.90
21261;DHT22;10788;47.930;9.766;2023-02-01T10:15:06;2.30;99.90
21261;DHT22;10788;47.930;9.766;2023-02-01T10:26:22;2.30;99.90
21261;DHT22;10788;47.930;9.766;2023-02-01T10:28:57;2.40;99.90
21261;DHT22;10788;47.930;9.766;2023-02-01T10:31:30;2.40;99.90
21261;DHT22;10788;47.930;9.766;2023-02-01T10:34:01;2.50;99.90
21261;DHT22;10788;47.930;9.766;2023-02-01T10:36:45;2.60;99.90
21261;DHT22;10788;47.930;9.766;2023-02-01T10:39:15;2.60;99.90
21261;DHT22;10788;47.930;9.766;2023-02-01T10:41:41;2.60;99.90
21261;DHT22;10788;47.930;9.766;2023-02-01T10:44:14;2.60;99.90
21261;DHT22;10788;47.930;9.766;2023-02-01T10:46:41;2.60;99.90
21261;DHT22;10788;47.930;9.766;2023-02-01T10:49:13;2.70;99.90
21261;DHT22;10788;47.930;9.766;2023-02-01T10:51:53;2.80;99.90
21261;DHT22;10788;47.930;9.766;2023-02-01T10:54:21;2.90;99.90
21261;DHT22;10788;47.930;9.766;2023-02-01T10:56:48;2.90;99.90
21261;DHT22;10788;47.930;9.766;2023-02-01T10:59:20;2.90;99.90
21261;DHT22;10788;47.930;9.766;2023-02-01T11:01:49;3.00;99.90
21261;DHT22;10788;47.930;9.766;2023-02-01T11:04:20;3.00;99.90
21261;DHT22;10788;47.930;9.766;2023-02-01T11:06:51;3.00;99.90
21261;DHT22;10788;47.930;9.766;2023-02-01T11:09:18;3.00;99.90
21261;DHT22;10788;47.930;9.766;2023-02-01T11:14:20;3.00;99.90
21261;DHT22;10788;47.930;9.766;2023-02-01T11:19:22;3.10;99.90
21261;DHT22;10788;47.930;9.766;2023-02-01T11:21:55;3.10;99.90
21261;DHT22;10788;47.930;9.766;2023-02-01T11:24:35;3.10;99.90
21261;DHT22;10788;47.930;9.766;2023-02-01T11:27:03;3.10;99.90
21261;DHT22;10788;47.930;9.766;2023-02-01T11:29:36;3.20;99.90
21261;DHT22;10788;47.930;9.766;2023-02-01T11:32:03;3.20;99.90
21261;DHT22;10788;47.930;9.766;2023-02-01T11:34:41;3.20;99.90
21261;DHT22;10788;47.930;9.766;2023-02-01T11:37:32;3.20;99.90
21261;DHT22;10788;47.930;9.766;2023-02-01T11:40:01;3.20;99.90
21261;DHT22;10788;47.930;9.766;2023-02-01T11:42:28;3.20;99.90
21261;DHT22;10788;47.930;9.766;2023-02-01T11:45:18;3.30;99.90
21261;DHT22;10788;47.930;9.766;2023-02-01T11:47:44;3.30;99.90
21261;DHT22;10788;47.930;9.766;2023-02-01T11:50:33;3.30;99.90
21261;DHT22;10788;47.930;9.766;2023-02-01T12:09:31;3.50;99.90
21261;DHT22;10788;47.930;9.766;2023-02-01T12:12:25;3.50;99.90
21261;DHT22;10788;47.930;9.766;2023-02-01T12:35:38;3.30;99.90
21261;DHT22;10788;47.930;9.766;2023-02-01T12:38:34;3.40;99.90
21261;DHT22;10788;47.930;9.766;2023-02-01T12:47:05;3.40;99.90
21261;DHT22;10788;47.930;9.766;2023-02-01T12:49:45;3.50;99.90
21261;DHT22;10788;47.930;9.766;2023-02-01T12:52:20;3.60;99.90
21261;DHT22;10788;47.930;9.766;2023-02-01T12:57:24;3.60;99.90
21261;DHT22;10788;47.930;9.766;2023-02-01T13:05:23;3.70;99.90
21261;DHT22;10788;47.930;9.766;2023-02-01T13:08:03;3.70;99.90
21261;DHT22;10788;47.930;9.766;2023-02-01T13:13:22;3.70;99.90
21261;DHT22;10788;47.930;9.766;2023-02-01T13:18:20;3.70;99.90
21261;DHT22;10788;47.930;9.766;2023-02-01T13:21:03;3.70;99.90
21261;DHT22;10788;47.930;9.766;2023-02-01T13:23:40;3.70;99.90
21261;DHT22;10788;47.930;9.766;2023-02-01T13:26:07;3.80;99.90
21261;DHT22;10788;47.930;9.766;2023-02-01T13:28:44;3.70;99.90
21261;DHT22;10788;47.930;9.766;2023-02-01T13:42:25;3.70;99.90
21261;DHT22;10788;47.930;9.766;2023-02-01T13:45:04;3.70;99.90
21261;DHT22;10788;47.930;9.766;2023-02-01T13:47:39;3.70;99.90
21261;DHT22;10788;47.930;9.766;2023-02-01T13:53:02;3.70;99.90
21261;DHT22;10788;47.930;9.766;2023-02-01T13:55:58;3.70;99.90
21261;DHT22;10788;47.930;9.766;2023-02-01T14:04:03;3.70;99.90
21261;DHT22;10788;47.930;9.766;2023-02-01T14:19:18;3.60;99.90
21261;DHT22;10788;47.930;9.766;2023-02-01T14:21:55;3.60;99.90
21261;DHT22;10788;47.930;9.766;2023-02-01T14:24:31;3.60;99.90
21261;DHT22;10788;47.930;9.766;2023-02-01T14:26:59;3.70;99.90
21261;DHT22;10788;47.930;9.766;2023-02-01T14:29:35;3.60;99.90
21261;DHT22;10788;47.930;9.766;2023-02-01T14:34:48;3.60;99.90
21261;DHT22;10788;47.930;9.766;2023-02-01T14:42:38;3.70;99.90
21261;DHT22;10788;47.930;9.766;2023-02-01T14:55:52;3.70;99.90
21261;DHT22;10788;47.930;9.766;2023-02-01T15:01:32;3.70;99.90
21261;DHT22;10788;47.930;9.766;2023-02-01T15:04:14;3.80;99.90
21261;DHT22;10788;47.930;9.766;2023-02-01T15:06:47;3.80;99.90
21261;DHT22;10788;47.930;9.766;2023-02-01T15:09:37;3.70;99.90
21261;DHT22;10788;47.930;9.766;2023-02-01T15:14:42;3.70;99.90
21261;DHT22;10788;47.930;9.766;2023-02-01T15:17:19;3.70;99.90
21261;DHT22;10788;47.930;9.766;2023-02-01T15:19:59;3.70;99.90
21261;DHT22;10788;47.930;9.766;2023-02-01T15:22:27;3.70;99.90
21261;DHT22;10788;47.930;9.766;2023-02-01T15:24:57;3.70;99.90
21261;DHT22;10788;47.930;9.766;2023-02-01T15:27:25;3.60;99.90
21261;DHT22;10788;47.930;9.766;2023-02-01T15:29:51;3.60;99.90
21261;DHT22;10788;47.930;9.766;2023-02-01T15:32:35;3.60;99.90
21261;DHT22;10788;47.930;9.766;2023-02-01T15:35:01;3.60;99.90
21261;DHT22;10788;47.930;9.766;2023-02-01T15:37:28;3.60;99.90
21261;DHT22;10788;47.930;9.766;2023-02-01T15:40:23;3.60;99.90
21261;DHT22;10788;47.930;9.766;2023-02-01T15:42:57;3.70;99.90
21261;DHT22;10788;47.930;9.766;2023-02-01T15:45:29;3.60;99.90
21261;DHT22;10788;47.930;9.766;2023-02-01T15:47:58;3.60;99.90
21261;DHT22;10788;47.930;9.766;2023-02-01T15:50:24;3.60;99.90
21261;DHT22;10788;47.930;9.766;2023-02-01T15:52:53;3.60;99.90
21261;DHT22;10788;47.930;9.766;2023-02-01T15:55:25;3.70;99.90
21261;DHT22;10788;47.930;9.766;2023-02-01T15:57:56;3.60;99.90
21261;DHT22;10788;47.930;9.766;2023-02-01T16:00:28;3.70;99.90
21261;DHT22;10788;47.930;9.766;2023-02-01T16:02:59;3.60;99.90
21261;DHT22;10788;47.930;9.766;2023-02-01T16:05:33;3.60;99.90
21261;DHT22;10788;47.930;9.766;2023-02-01T16:08:11;3.60;99.90
21261;DHT22;10788;47.930;9.766;2023-02-01T16:10:49;3.60;99.90
21261;DHT22;10788;47.930;9.766;2023-02-01T16:13:16;3.60;99.90
21261;DHT22;10788;47.930;9.766;2023-02-01T16:15:43;3.50;99.90
21261;DHT22;10788;47.930;9.766;2023-02-01T16:18:10;3.50;99.90
21261;DHT22;10788;47.930;9.766;2023-02-01T16:20:37;3.50;99.90
21261;DHT22;10788;47.930;9.766;2023-02-01T16:23:03;3.40;99.90
21261;DHT22;10788;47.930;9.766;2023-02-01T16:25:29;3.50;99.90
21261;DHT22;10788;47.930;9.766;2023-02-01T16:27:55;3.50;99.90
21261;DHT22;10788;47.930;9.766;2023-02-01T16:30:20;3.50;99.90
21261;DHT22;10788;47.930;9.766;2023-02-01T16:32:57;3.50;99.90
21261;DHT22;10788;47.930;9.766;2023-02-01T16:35:28;3.40;99.90
21261;DHT22;10788;47.930;9.766;2023-02-01T16:37:57;3.50;99.90
21261;DHT22;10788;47.930;9.766;2023-02-01T16:40:23;3.40;99.90
21261;DHT22;10788;47.930;9.766;2023-02-01T16:42:50;3.40;99.90
21261;DHT22;10788;47.930;9.766;2023-02-01T16:45:16;3.40;99.90
21261;DHT22;10788;47.930;9.766;2023-02-01T16:47:46;3.40;99.90
21261;DHT22;10788;47.930;9.766;2023-02-01T16:50:18;3.40;99.90
21261;DHT22;10788;47.930;9.766;2023-02-01T16:52:45;3.40;99.90
21261;DHT22;10788;47.930;9.766;2023-02-01T16:55:16;3.50;99.90
21261;DHT22;10788;47.930;9.766;2023-02-01T16:57:42;3.40;99.90
21261;DHT22;10788;47.930;9.766;2023-02-01T17:00:09;3.40;99.90
21261;DHT22;10788;47.930;9.766;2023-02-01T17:02:35;3.40;99.90
21261;DHT22;10788;47.930;9.766;2023-02-01T17:05:01;3.50;99.90
21261;DHT22;10788;47.930;9.766;2023-02-01T17:07:27;3.40;99.90
21261;DHT22;10788;47.930;9.766;2023-02-01T17:09:52;3.50;99.90
21261;DHT22;10788;47.930;9.766;2023-02-01T17:12:26;3.50;99.90
21261;DHT22;10788;47.930;9.766;2023-02-01T17:14:52;3.40;99.90
21261;DHT22;10788;47.930;9.766;2023-02-01T17:17:20;3.40;99.90
21261;DHT22;10788;47.930;9.766;2023-02-01T17:19:49;3.40;99.90
21261;DHT22;10788;47.930;9.766;2023-02-01T17:22:22;3.40;99.90
21261;DHT22;10788;47.930;9.766;2023-02-01T17:24:47;3.50;99.90
21261;DHT22;10788;47.930;9.766;2023-02-01T17:27:14;3.40;99.90
21261;DHT22;10788;47.930;9.766;2023-02-01T17:29:40;3.40;99.90
21261;DHT22;10788;47.930;9.766;2023-02-01T17:32:13;3.40;99.90
21261;DHT22;10788;47.930;9.766;2023-02-01T17:34:40;3.40;99.90
21261;DHT22;10788;47.930;9.766;2023-02-01T17:37:22;3.40;99.90
21261;DHT22;10788;47.930;9.766;2023-02-01T17:39:48;3.30;99.90
21261;DHT22;10788;47.930;9.766;2023-02-01T17:42:20;3.40;99.90
21261;DHT22;10788;47.930;9.766;2023-02-01T17:44:46;3.30;99.90
21261;DHT22;10788;47.930;9.766;2023-02-01T17:47:12;3.30;99.90
21261;DHT22;10788;47.930;9.766;2023-02-01T17:49:37;3.30;99.90
21261;DHT22;10788;47.930;9.766;2023-02-01T17:52:04;3.30;99.90
21261;DHT22;10788;47.930;9.766;2023-02-01T17:54:30;3.30;99.90
21261;DHT22;10788;47.930;9.766;2023-02-01T17:56:56;3.30;99.90
21261;DHT22;10788;47.930;9.766;2023-02-01T17:59:26;3.40;99.90
21261;DHT22;10788;47.930;9.766;2023-02-01T18:01:51;3.30;99.90
21261;DHT22;10788;47.930;9.766;2023-02-01T18:04:18;3.30;99.90
21261;DHT22;10788;47.930;9.766;2023-02-01T18:06:46;3.30;99.90
21261;DHT22;10788;47.930;9.766;2023-02-01T18:09:11;3.30;99.90
21261;DHT22;10788;47.930;9.766;2023-02-01T18:11:37;3.30;99.90
21261;DHT22;10788;47.930;9.766;2023-02-01T18:14:02;3.30;99.90
21261;DHT22;10788;47.930;9.766;2023-02-01T18:16:30;3.30;99.90
21261;DHT22;10788;47.930;9.766;2023-02-01T18:18:56;3.20;99.90
21261;DHT22;10788;47.930;9.766;2023-02-01T18:21:31;3.30;99.90
21261;DHT22;10788;47.930;9.766;2023-02-01T18:23:59;3.30;99.90
21261;DHT22;10788;47.930;9.766;2023-02-01T18:26:25;3.40;99.90
21261;DHT22;10788;47.930;9.766;2023-02-01T18:28:50;3.30;99.90
21261;DHT22;10788;47.930;9.766;2023-02-01T18:31:28;3.20;99.90
21261;DHT22;10788;47.930;9.766;2023-02-01T18:33:56;3.20;99.90
21261;DHT22;10788;47.930;9.766;2023-02-01T18:36:22;3.30;99.90
21261;DHT22;10788;47.930;9.766;2023-02-01T18:38:48;3.30;99.90
21261;DHT22;10788;47.930;9.766;2023-02-01T18:41:16;3.30;99.90
21261;DHT22;10788;47.930;9.766;2023-02-01T18:43:42;3.30;99.90
21261;DHT22;10788;47.930;9.766;2023-02-01T18:46:09;3.30;99.90